Brooks, Kentucky
Current Conditions -  °F | °C
As of 1:56 AM on Friday 28 Nov 2014 (Local Time) from KSDF Reporting Station
Few Clouds Few Clouds  
Wind Chill: 19°   Ceiling: Unl
Heat Index: 26°   Visibility: 10mi
Dew Point: 19°   Wind: 6mph
Humidity: 75%   Direction: 250°WSW
Pressure: 30.42"   Gusts: NA
Location:  38.06°N, 85.71°W
Report Text: KSDF 280656Z 25005KT 10SM FEW036 FEW080 M03/M07 A3042 RMK AO2 SLP305 T10331072
Loading
Personal Weather Stations






























Interactive Weather Map New forecast layout! Learn more

10-Day Weather Forecast

Advertisements
Track Severe Weather on mobile